createdAt,value
2024-04-11T00:01:34.259Z,52.31
2024-04-11T00:04:03.780Z,53.41
2024-04-11T00:06:31.853Z,53.44
2024-04-11T00:09:03.055Z,53.15
2024-04-11T00:11:32.463Z,53.53
2024-04-11T00:14:00.268Z,54.13
2024-04-11T00:16:29.559Z,54.02
2024-04-11T00:18:59.721Z,53.18
2024-04-11T00:21:28.432Z,53.67
2024-04-11T00:23:56.328Z,52.65
2024-04-11T00:26:25.470Z,52.32
2024-04-11T00:28:53.360Z,53.06
2024-04-11T00:31:22.322Z,52.10
2024-04-11T00:33:51.457Z,50.89
2024-04-11T00:36:19.274Z,51.36
2024-04-11T00:38:48.079Z,52.02
2024-04-11T00:41:16.075Z,51.77
2024-04-11T00:43:44.006Z,52.47
2024-04-11T00:46:13.481Z,53.28
2024-04-11T00:48:41.724Z,53.21
2024-04-11T00:51:11.316Z,52.09
2024-04-11T00:53:39.094Z,53.12
2024-04-11T00:56:06.959Z,53.00
2024-04-11T00:58:35.143Z,53.79
2024-04-11T01:01:04.064Z,53.45
2024-04-11T01:03:33.453Z,52.51
2024-04-11T01:14:14.510Z,52.62
2024-04-11T01:16:41.697Z,52.12
2024-04-11T01:19:09.032Z,52.24
2024-04-11T01:21:36.339Z,53.56
2024-04-11T01:24:03.770Z,53.19
2024-04-11T01:26:31.386Z,53.58
2024-04-11T01:28:58.648Z,52.80
2024-04-11T01:31:25.764Z,53.16
2024-04-11T01:33:56.331Z,53.04
2024-04-11T01:36:23.913Z,52.83
2024-04-11T01:38:51.233Z,53.03
2024-04-11T01:41:18.518Z,53.44
2024-04-11T01:43:48.249Z,53.12
2024-04-11T01:46:15.666Z,54.16
2024-04-11T01:48:43.236Z,54.39
2024-04-11T01:51:10.680Z,53.86
2024-04-11T01:53:42.007Z,53.65
2024-04-11T01:56:12.767Z,54.48
2024-04-11T01:58:40.827Z,54.01
2024-04-11T02:01:08.149Z,54.43
2024-04-11T02:03:36.269Z,54.21
2024-04-11T02:06:03.749Z,55.38
2024-04-11T02:08:31.602Z,54.70
2024-04-11T02:11:01.106Z,54.65
2024-04-11T02:13:28.964Z,54.54
2024-04-11T02:16:00.612Z,53.84
2024-04-11T02:18:28.723Z,54.07
2024-04-11T02:20:58.275Z,54.24
2024-04-11T02:23:29.064Z,54.14
2024-04-11T02:25:57.435Z,53.25
2024-04-11T02:28:25.458Z,53.32
2024-04-11T02:30:54.320Z,54.10
2024-04-11T02:33:23.581Z,53.12
2024-04-11T02:35:52.619Z,53.56
2024-04-11T02:38:21.698Z,53.41
2024-04-11T02:40:49.446Z,53.29
2024-04-11T02:43:17.494Z,53.63
2024-04-11T02:45:45.549Z,53.34
2024-04-11T02:48:13.363Z,53.55
2024-04-11T02:50:41.616Z,53.99
2024-04-11T02:53:09.338Z,53.69
2024-04-11T02:55:37.632Z,52.95
2024-04-11T02:58:06.429Z,54.84
2024-04-11T03:00:35.745Z,52.95
2024-04-11T03:03:03.992Z,53.21
2024-04-11T03:05:31.943Z,53.32
2024-04-11T03:07:59.973Z,53.02
2024-04-11T03:10:27.726Z,53.31
2024-04-11T03:12:56.739Z,52.75
2024-04-11T03:15:25.783Z,52.49
2024-04-11T03:17:53.823Z,52.77
2024-04-11T03:20:22.864Z,52.89
2024-04-11T03:22:51.129Z,53.47
2024-04-11T03:25:18.836Z,53.72
2024-04-11T03:27:46.799Z,52.58
2024-04-11T03:30:14.879Z,52.65
2024-04-11T03:32:44.194Z,53.13
2024-04-11T03:35:12.069Z,52.91
2024-04-11T03:37:40.267Z,52.67
2024-04-11T03:40:08.553Z,51.60
2024-04-11T03:42:37.758Z,51.78
2024-04-11T03:45:06.046Z,51.65
2024-04-11T03:47:34.076Z,50.97
2024-04-11T03:50:06.260Z,50.76
2024-04-11T03:52:35.150Z,51.44
2024-04-11T03:55:04.269Z,51.20
2024-04-11T03:57:33.022Z,51.07
2024-04-11T04:00:03.318Z,51.67
2024-04-11T04:02:31.488Z,53.60
2024-04-11T04:05:00.824Z,53.25
2024-04-11T04:07:31.176Z,53.79
2024-04-11T04:10:00.826Z,54.05
2024-04-11T04:12:28.479Z,53.62
2024-04-11T04:14:57.687Z,55.20
2024-04-11T04:17:26.304Z,55.21
2024-04-11T04:19:54.325Z,54.93
2024-04-11T04:22:23.096Z,55.43
2024-04-11T04:24:52.037Z,55.28
2024-04-11T04:27:21.026Z,54.60
2024-04-11T04:29:52.681Z,55.60
2024-04-11T04:32:24.169Z,55.67
2024-04-11T04:34:52.193Z,55.25
2024-04-11T04:37:19.834Z,56.00
2024-04-11T04:39:47.620Z,55.65
2024-04-11T04:42:19.587Z,55.64
2024-04-11T04:44:51.409Z,55.72
2024-04-11T04:47:19.190Z,55.36
2024-04-11T04:49:48.083Z,54.98
2024-04-11T04:52:16.495Z,54.76
2024-04-11T04:54:44.600Z,53.45
2024-04-11T04:57:12.625Z,53.98
2024-04-11T04:59:44.196Z,54.87
2024-04-11T05:02:12.789Z,55.17
2024-04-11T05:04:47.675Z,54.37
2024-04-11T05:07:15.849Z,53.73
2024-04-11T05:09:43.753Z,54.83
2024-04-11T05:12:12.600Z,54.02
2024-04-11T05:14:40.518Z,55.29
2024-04-11T05:17:09.567Z,54.42
2024-04-11T05:19:37.206Z,54.65
2024-04-11T05:22:06.024Z,54.56
2024-04-11T05:24:34.089Z,56.34
2024-04-11T05:27:01.814Z,56.18
2024-04-11T05:29:30.751Z,55.65
2024-04-11T05:32:00.463Z,54.59
2024-04-11T05:34:28.416Z,54.57
2024-04-11T05:36:57.665Z,54.24
2024-04-11T05:39:24.996Z,56.06
2024-04-11T05:41:52.058Z,56.51
2024-04-11T05:44:19.478Z,55.14
2024-04-11T05:46:46.924Z,53.40
2024-04-11T05:49:15.212Z,53.25
2024-04-11T05:51:42.524Z,53.14
2024-04-11T05:54:09.777Z,54.95
2024-04-11T05:56:37.786Z,54.15
2024-04-11T05:59:06.320Z,53.66
2024-04-11T06:01:33.653Z,54.21
2024-04-11T06:04:01.354Z,53.70
2024-04-11T06:06:28.949Z,51.91
2024-04-11T06:08:56.289Z,52.40
2024-04-11T06:11:23.706Z,53.32
2024-04-11T06:13:51.120Z,51.91
2024-04-11T06:16:18.592Z,52.06
2024-04-11T06:18:48.322Z,52.84
2024-04-11T06:21:16.033Z,53.97
2024-04-11T06:23:43.462Z,55.66
2024-04-11T06:26:12.766Z,56.49
2024-04-11T06:28:40.844Z,57.05
2024-04-11T06:31:11.138Z,56.91
2024-04-11T06:33:38.250Z,57.20
2024-04-11T06:36:05.846Z,57.02
2024-04-11T06:38:33.924Z,56.60
2024-04-11T06:41:03.151Z,56.00
2024-04-11T06:43:32.035Z,55.50
2024-04-11T06:45:59.666Z,54.01
2024-04-11T06:48:27.810Z,54.04
2024-04-11T06:50:56.761Z,53.37
2024-04-11T06:53:25.772Z,53.78
2024-04-11T06:55:54.467Z,52.29
2024-04-11T06:58:23.341Z,52.01
2024-04-11T07:01:02.333Z,52.44
2024-04-11T07:03:31.799Z,52.87
2024-04-11T07:06:02.963Z,53.84
2024-04-11T07:08:31.160Z,55.17
2024-04-11T07:11:04.728Z,55.03
2024-04-11T07:13:33.223Z,55.07
2024-04-11T07:16:02.362Z,56.06
2024-04-11T07:18:30.163Z,55.75
2024-04-11T07:20:58.021Z,57.05
2024-04-11T07:23:26.854Z,56.89
2024-04-11T07:25:56.213Z,56.67
2024-04-11T07:28:27.360Z,56.96
2024-04-11T07:30:55.777Z,56.16
2024-04-11T07:33:23.598Z,55.88
2024-04-11T07:35:50.893Z,55.10
2024-04-11T07:38:18.196Z,55.10
2024-04-11T07:40:47.451Z,54.20
2024-04-11T07:43:14.638Z,54.11
2024-04-11T07:45:42.096Z,53.92
2024-04-11T07:48:16.189Z,52.92
2024-04-11T07:50:44.668Z,54.27
2024-04-11T07:53:12.600Z,54.84
2024-04-11T07:55:39.861Z,55.13
2024-04-11T07:58:07.830Z,54.15
2024-04-11T08:00:38.097Z,54.81
2024-04-11T08:03:05.596Z,53.66
2024-04-11T08:05:33.312Z,53.07
2024-04-11T08:08:01.016Z,53.97
2024-04-11T08:10:31.445Z,53.46
2024-04-11T08:12:58.816Z,54.64
2024-04-11T08:15:26.714Z,55.34
2024-04-11T08:17:54.550Z,55.64
2024-04-11T08:20:22.639Z,54.28
2024-04-11T08:22:50.838Z,54.00
2024-04-11T08:25:18.168Z,54.13
2024-04-11T08:27:46.315Z,54.44
2024-04-11T08:30:13.997Z,54.28
2024-04-11T08:32:43.146Z,53.23
2024-04-11T08:35:11.682Z,52.06
2024-04-11T08:37:39.617Z,51.31
2024-04-11T08:40:08.767Z,51.79
2024-04-11T08:42:39.212Z,51.99
2024-04-11T08:45:08.710Z,52.00
2024-04-11T08:47:38.184Z,51.51
2024-04-11T08:50:08.661Z,50.78
2024-04-11T08:52:40.323Z,51.04
2024-04-11T08:55:14.711Z,50.38
2024-04-11T08:57:43.790Z,51.01
2024-04-11T09:00:14.631Z,50.16
2024-04-11T09:02:43.759Z,50.78
2024-04-11T09:05:16.093Z,49.20
2024-04-11T09:07:45.409Z,48.57
2024-04-11T09:10:18.042Z,49.00
2024-04-11T09:12:51.631Z,50.13
2024-04-11T09:15:21.133Z,50.08
2024-04-11T09:17:48.862Z,49.47
2024-04-11T09:20:19.216Z,48.87
2024-04-11T09:22:56.402Z,49.52
2024-04-11T09:25:28.059Z,49.46
2024-04-11T09:27:58.747Z,51.07
2024-04-11T09:30:32.342Z,50.63
2024-04-11T09:33:03.294Z,49.27
2024-04-11T09:35:40.451Z,49.67
2024-04-11T09:38:12.439Z,48.97
2024-04-11T09:40:47.334Z,47.79
2024-04-11T09:43:19.220Z,48.07
2024-04-11T09:45:51.497Z,48.25
2024-04-11T09:48:21.005Z,48.43
2024-04-11T09:50:53.394Z,48.63
2024-04-11T09:53:26.647Z,48.89
2024-04-11T09:55:57.035Z,49.14
2024-04-11T09:58:29.135Z,49.17
2024-04-11T10:00:58.767Z,49.11
2024-04-11T10:03:27.278Z,49.54
2024-04-11T10:06:05.788Z,50.26
2024-04-11T10:08:38.074Z,48.49
2024-04-11T10:11:07.279Z,48.19
2024-04-11T10:13:36.822Z,49.25
2024-04-11T10:16:10.274Z,47.54
2024-04-11T10:18:44.200Z,48.34
2024-04-11T10:21:13.885Z,48.96
2024-04-11T10:23:41.864Z,47.45
2024-04-11T10:26:19.237Z,47.89
2024-04-11T10:28:48.025Z,48.32
2024-04-11T10:31:16.314Z,46.86
2024-04-11T10:33:47.258Z,46.15
2024-04-11T10:36:16.232Z,47.68
2024-04-11T10:38:45.321Z,46.62
2024-04-11T10:41:14.582Z,45.72
2024-04-11T10:43:42.249Z,45.22
2024-04-11T10:46:11.014Z,46.39
2024-04-11T10:48:40.061Z,45.62
2024-04-11T10:51:11.983Z,45.20
2024-04-11T10:53:40.978Z,45.13
2024-04-11T10:56:13.268Z,45.63
2024-04-11T10:58:45.805Z,46.25
2024-04-11T11:01:16.210Z,45.99
2024-04-11T11:03:50.061Z,45.44
2024-04-11T11:06:19.760Z,45.14
2024-04-11T11:08:58.078Z,46.42
2024-04-11T11:11:27.648Z,45.29
2024-04-11T11:13:57.331Z,45.55
2024-04-11T11:16:27.247Z,46.79
2024-04-11T11:18:57.462Z,45.92
2024-04-11T11:21:26.578Z,45.46
2024-04-11T11:23:55.719Z,45.64
2024-04-11T11:26:24.363Z,45.39
2024-04-11T11:28:52.532Z,44.77
2024-04-11T11:31:21.302Z,45.68
2024-04-11T11:33:50.251Z,45.04
2024-04-11T11:36:18.224Z,44.35
2024-04-11T11:38:45.904Z,44.90
2024-04-11T11:41:15.265Z,45.41
2024-04-11T11:43:46.395Z,45.61
2024-04-11T11:46:14.391Z,45.80
2024-04-11T11:48:42.050Z,45.60
2024-04-11T11:51:09.543Z,44.07
2024-04-11T11:53:37.827Z,42.90
2024-04-11T11:56:06.111Z,42.16
2024-04-11T11:58:34.295Z,40.99
2024-04-11T12:01:01.584Z,41.12
2024-04-11T12:03:39.378Z,43.07
2024-04-11T12:06:07.404Z,43.75
2024-04-11T12:08:34.827Z,41.02
2024-04-11T12:11:02.319Z,41.49
2024-04-11T12:13:29.983Z,42.08
2024-04-11T12:15:57.199Z,41.48
2024-04-11T12:18:25.074Z,43.19
2024-04-11T12:20:56.486Z,40.58
2024-04-11T12:23:28.970Z,39.91
2024-04-11T12:25:59.441Z,40.57
2024-04-11T12:28:30.640Z,41.28
2024-04-11T12:33:29.506Z,38.94
2024-04-11T12:35:59.482Z,39.22
2024-04-11T12:38:28.068Z,39.15
2024-04-11T12:40:55.868Z,40.36
2024-04-11T12:43:24.890Z,41.08
2024-04-11T12:45:54.428Z,39.90
2024-04-11T12:48:29.359Z,39.79
2024-04-11T12:50:58.497Z,40.30
2024-04-11T12:53:27.017Z,38.19
2024-04-11T12:55:55.156Z,39.04
2024-04-11T12:58:25.092Z,41.06
2024-04-11T13:00:59.437Z,43.28
2024-04-11T13:03:28.355Z,42.76
2024-04-11T13:05:57.270Z,40.35
2024-04-11T13:08:31.249Z,41.66
2024-04-11T13:11:04.278Z,39.70
2024-04-11T13:13:35.084Z,39.95
2024-04-11T13:16:04.556Z,39.30
2024-04-11T13:18:34.853Z,41.66
2024-04-11T13:21:03.765Z,41.69
2024-04-11T13:23:35.738Z,42.24
2024-04-11T13:26:03.572Z,39.48
2024-04-11T13:28:31.353Z,40.25
2024-04-11T13:31:00.177Z,39.36
2024-04-11T13:33:28.892Z,38.83
2024-04-11T13:35:57.136Z,37.52
2024-04-11T13:38:27.874Z,36.62
2024-04-11T13:40:59.037Z,36.68
2024-04-11T13:43:27.030Z,39.02
2024-04-11T13:45:56.582Z,38.31
2024-04-11T13:48:24.350Z,38.64
2024-04-11T13:50:53.254Z,38.76
2024-04-11T13:53:22.856Z,39.50
2024-04-11T13:55:50.815Z,39.66
2024-04-11T13:58:19.620Z,37.92
2024-04-11T14:00:49.206Z,38.69
2024-04-11T14:03:21.877Z,38.75
2024-04-11T14:05:56.290Z,39.29
2024-04-11T14:08:24.168Z,38.63
2024-04-11T14:10:52.152Z,38.51
2024-04-11T14:13:20.032Z,38.89
2024-04-11T14:15:47.737Z,39.76
2024-04-11T14:18:20.815Z,39.74
2024-04-11T14:20:48.720Z,38.80
2024-04-11T14:23:16.839Z,38.60
2024-04-11T14:25:47.026Z,37.73
2024-04-11T14:28:18.107Z,38.01
2024-04-11T14:30:53.660Z,38.38
2024-04-11T14:33:24.430Z,37.59
2024-04-11T14:35:52.280Z,37.08
2024-04-11T14:38:19.775Z,37.54
2024-04-11T14:40:47.019Z,36.57
2024-04-11T14:43:16.050Z,36.94
2024-04-11T14:45:43.664Z,38.26
2024-04-11T14:48:12.860Z,37.37
2024-04-11T14:50:40.644Z,36.77
2024-04-11T14:53:08.133Z,36.77
2024-04-11T14:55:35.748Z,36.18
2024-04-11T14:58:03.376Z,37.93
2024-04-11T15:00:31.132Z,36.96
2024-04-11T15:03:01.842Z,36.09
2024-04-11T15:05:30.104Z,33.58
2024-04-11T15:07:58.025Z,35.37
2024-04-11T15:10:25.988Z,35.30
2024-04-11T15:12:54.641Z,34.46
2024-04-11T15:15:22.632Z,34.45
2024-04-11T15:17:54.946Z,35.40
2024-04-11T15:20:25.331Z,34.71
2024-04-11T15:22:52.919Z,35.31
2024-04-11T15:25:20.980Z,34.18
2024-04-11T15:27:49.009Z,33.46
2024-04-11T15:30:23.494Z,33.96
2024-04-11T15:32:52.739Z,34.03
2024-04-11T15:35:20.958Z,33.23
2024-04-11T15:37:52.142Z,33.71
2024-04-11T15:40:21.683Z,34.91
2024-04-11T15:42:50.246Z,35.49
2024-04-11T15:45:19.310Z,34.49
2024-04-11T15:47:48.442Z,33.90
2024-04-11T15:50:19.488Z,33.29
2024-04-11T15:52:48.745Z,33.72
2024-04-11T15:55:17.173Z,34.68
2024-04-11T15:57:46.231Z,32.72
2024-04-11T16:00:14.001Z,35.14
2024-04-11T16:02:42.967Z,35.17
2024-04-11T16:05:11.284Z,36.18
2024-04-11T16:07:39.004Z,36.71
2024-04-11T16:10:07.019Z,35.75
2024-04-11T16:12:36.857Z,35.97
2024-04-11T16:15:04.658Z,35.71
2024-04-11T16:17:32.489Z,36.90
2024-04-11T16:20:00.574Z,35.30
2024-04-11T16:22:28.296Z,36.33
2024-04-11T16:24:55.714Z,36.74
2024-04-11T16:27:23.285Z,37.33
2024-04-11T16:29:52.536Z,36.61
2024-04-11T16:32:20.631Z,36.03
2024-04-11T16:34:51.222Z,37.34
2024-04-11T16:37:18.464Z,37.76
2024-04-11T16:39:45.753Z,38.53
2024-04-11T16:42:13.133Z,37.90
2024-04-11T16:44:43.892Z,38.88
2024-04-11T16:47:11.464Z,38.53
2024-04-11T16:49:38.992Z,39.25
2024-04-11T16:52:06.928Z,40.06
2024-04-11T16:54:34.173Z,41.21
2024-04-11T16:57:01.636Z,40.39
2024-04-11T16:59:29.761Z,39.87
2024-04-11T17:01:57.226Z,40.08
2024-04-11T17:04:26.639Z,39.34
2024-04-11T17:06:54.991Z,39.76
2024-04-11T17:09:23.073Z,41.11
2024-04-11T17:11:51.959Z,40.60
2024-04-11T17:14:22.912Z,40.99
2024-04-11T17:16:51.808Z,39.54
2024-04-11T17:19:25.473Z,40.44
2024-04-11T17:21:53.889Z,41.48
2024-04-11T17:24:24.430Z,42.11
2024-04-11T17:26:53.566Z,39.81
2024-04-11T17:29:22.711Z,40.50
2024-04-11T17:31:52.671Z,40.15
2024-04-11T17:34:23.548Z,40.21
2024-04-11T17:36:52.351Z,39.98
2024-04-11T17:39:27.716Z,38.94
2024-04-11T17:41:57.560Z,38.76
2024-04-11T17:44:26.918Z,39.59
2024-04-11T17:46:55.906Z,39.99
2024-04-11T17:49:24.394Z,40.07
2024-04-11T17:51:56.060Z,40.63
2024-04-11T17:54:24.370Z,40.58
2024-04-11T17:56:51.867Z,40.96
2024-04-11T17:59:19.186Z,40.74
2024-04-11T18:01:47.678Z,41.23
2024-04-11T18:04:15.366Z,42.12
2024-04-11T18:06:44.547Z,42.64
2024-04-11T18:09:13.014Z,42.72
2024-04-11T18:11:42.584Z,41.49
2024-04-11T18:14:10.749Z,42.13
2024-04-11T18:16:38.224Z,42.79
2024-04-11T18:19:05.633Z,42.41
2024-04-11T18:21:33.122Z,42.26
2024-04-11T18:24:00.448Z,43.00
2024-04-11T18:26:27.943Z,41.66
2024-04-11T18:28:55.213Z,41.54
2024-04-11T18:31:24.114Z,40.81
2024-04-11T18:33:51.689Z,43.38
2024-04-11T18:36:19.166Z,42.18
2024-04-11T18:38:46.471Z,41.98
2024-04-11T18:41:14.045Z,40.72
2024-04-11T18:43:42.921Z,40.34
2024-04-11T18:46:10.188Z,40.78
2024-04-11T18:48:37.375Z,40.58
2024-04-11T18:51:06.612Z,43.08
2024-04-11T18:53:34.908Z,41.67
2024-04-11T18:56:04.483Z,42.30
2024-04-11T18:58:33.393Z,42.40
2024-04-11T19:01:01.205Z,41.69
2024-04-11T19:03:30.020Z,42.75
2024-04-11T19:05:58.248Z,43.34
2024-04-11T19:08:29.284Z,43.15
2024-04-11T19:10:58.409Z,41.77
2024-04-11T19:13:27.556Z,41.11
2024-04-11T19:16:01.470Z,41.38
2024-04-11T19:18:30.650Z,41.71
2024-04-11T19:20:59.893Z,42.72
2024-04-11T19:23:29.144Z,41.89
2024-04-11T19:25:57.580Z,42.62
2024-04-11T19:28:27.751Z,42.62
2024-04-11T19:30:54.978Z,42.65
2024-04-11T19:33:23.614Z,42.62
2024-04-11T19:35:51.430Z,41.58
2024-04-11T19:38:19.576Z,43.10
2024-04-11T19:40:47.052Z,43.87
2024-04-11T19:43:14.833Z,43.54
2024-04-11T19:45:42.702Z,44.60
2024-04-11T19:48:10.408Z,44.61
2024-04-11T19:50:38.032Z,45.08
2024-04-11T19:53:05.788Z,46.23
2024-04-11T19:55:33.079Z,45.52
2024-04-11T19:58:00.534Z,45.89
2024-04-11T20:00:29.747Z,46.65
2024-04-11T20:02:57.398Z,45.77
2024-04-11T20:05:28.108Z,46.73
2024-04-11T20:07:55.904Z,47.27
2024-04-11T20:10:29.729Z,49.03
2024-04-11T20:12:59.179Z,49.30
2024-04-11T20:15:26.815Z,48.63
2024-04-11T20:17:55.410Z,47.82
2024-04-11T20:20:24.172Z,48.50
2024-04-11T20:22:51.453Z,48.19
2024-04-11T20:25:18.790Z,50.52
2024-04-11T20:27:49.107Z,49.21
2024-04-11T20:30:19.223Z,50.77
2024-04-11T20:32:50.449Z,49.22
2024-04-11T20:35:20.642Z,49.11
2024-04-11T20:37:48.334Z,51.07
2024-04-11T20:40:16.244Z,51.07
2024-04-11T20:42:46.645Z,51.33
2024-04-11T20:45:15.063Z,50.85
2024-04-11T20:47:44.921Z,50.26
2024-04-11T20:50:14.151Z,50.71
2024-04-11T20:52:43.215Z,50.11
2024-04-11T20:55:11.269Z,49.92
2024-04-11T20:57:41.860Z,49.27
2024-04-11T21:00:10.745Z,49.85
2024-04-11T21:02:42.443Z,49.38
2024-04-11T21:05:13.324Z,49.61
2024-04-11T21:07:41.939Z,50.13
2024-04-11T21:10:20.775Z,49.51
2024-04-11T21:13:15.021Z,50.18
2024-04-11T21:15:52.619Z,51.53
2024-04-11T21:18:24.680Z,50.91
2024-04-11T21:20:53.847Z,50.69
2024-04-11T21:23:31.735Z,51.66
2024-04-11T21:26:10.103Z,50.01
2024-04-11T21:28:52.507Z,50.49
2024-04-11T21:31:26.958Z,51.02
2024-04-11T21:34:00.355Z,49.32
2024-04-11T21:37:15.734Z,49.58
2024-04-11T21:39:46.909Z,50.43
2024-04-11T21:42:16.229Z,50.61
2024-04-11T21:44:46.804Z,49.41
2024-04-11T21:47:16.096Z,49.88
2024-04-11T21:49:45.127Z,50.21
2024-04-11T21:52:18.888Z,50.49
2024-04-11T21:54:53.613Z,51.11
2024-04-11T21:57:31.642Z,50.37
2024-04-11T22:00:24.954Z,49.77
2024-04-11T22:02:59.483Z,49.84
2024-04-11T22:05:28.368Z,51.04
2024-04-11T22:07:57.167Z,51.17
2024-04-11T22:10:29.047Z,51.41
2024-04-11T22:13:15.414Z,51.21
2024-04-11T22:15:49.604Z,50.98
2024-04-11T22:18:18.392Z,50.50
2024-04-11T22:20:46.957Z,51.86
2024-04-11T22:23:31.188Z,50.29
2024-04-11T22:26:05.015Z,50.65
2024-04-11T22:28:56.580Z,50.99
2024-04-11T22:31:24.808Z,50.79
2024-04-11T22:34:21.741Z,51.64
2024-04-11T22:36:55.239Z,50.14
2024-04-11T22:39:27.332Z,50.77
2024-04-11T22:42:19.598Z,51.38
2024-04-11T22:44:49.464Z,51.13
2024-04-11T22:47:19.490Z,50.27
2024-04-11T22:49:53.104Z,51.00
2024-04-11T22:52:47.768Z,51.15
2024-04-11T22:55:15.509Z,50.93
2024-04-11T22:57:57.440Z,51.29
2024-04-11T23:00:48.988Z,51.21
2024-04-11T23:10:52.061Z,51.95
2024-04-11T23:13:53.772Z,52.29
2024-04-11T23:16:26.693Z,52.89
2024-04-11T23:19:02.313Z,52.68
2024-04-11T23:21:32.298Z,52.17
2024-04-11T23:24:10.097Z,52.14
2024-04-11T23:26:38.736Z,51.68
2024-04-11T23:29:06.419Z,51.55
2024-04-11T23:31:36.730Z,50.75
2024-04-11T23:34:09.839Z,51.34
2024-04-11T23:36:51.191Z,50.21
2024-04-11T23:39:23.892Z,52.28
2024-04-11T23:41:55.714Z,52.67
2024-04-11T23:44:25.988Z,52.23
2024-04-11T23:47:03.621Z,53.24
2024-04-11T23:49:31.347Z,52.19
2024-04-11T23:52:02.025Z,51.60
2024-04-11T23:54:31.019Z,51.55
2024-04-11T23:56:58.891Z,51.53
